VTK601 UHMM-UHMP
Flight info
| Callsign | VTK601 |
|---|---|
| Flight time | 2h 21m |
| Altitude | 29000 |
| Route | TITAL5D TITAL T454 MAKUB MAKUB1L |
| Aircraft | RJ1H/M-SDFGIRWY/LB1 |
Departure
| Time | 2026-04-27 06:56 |
|---|---|
| Airport | Sokol Airport (UHMM) |
Arrival
| Time | 2026-04-27 09:17 |
|---|---|
| Airport | Pevek Airport (UHMP) |
| Time | Latitude | Longitude | Altitude | Speed | Heading |
|---|---|---|---|---|---|
| 2026-04-27 06:32 | 59.91387 | 150.71875 | 582 ft | 0 kts | 3° |
| 2026-04-27 06:48 | 59.91385 | 150.71874 | 582 ft | 2 kts | 3° |
| 2026-04-27 06:48 | 59.91369 | 150.71873 | 582 ft | 2 kts | 3° |
| 2026-04-27 06:48 | 59.91346 | 150.71870 | 582 ft | 4 kts | 359° |
| 2026-04-27 06:48 | 59.91322 | 150.71889 | 582 ft | 4 kts | 306° |
| 2026-04-27 06:49 | 59.91316 | 150.71918 | 582 ft | 0 kts | 275° |
| 2026-04-27 06:50 | 59.91317 | 150.71888 | 582 ft | 4 kts | 275° |
| 2026-04-27 06:50 | 59.91319 | 150.71803 | 582 ft | 8 kts | 272° |
| 2026-04-27 06:51 | 59.91322 | 150.71674 | 582 ft | 11 kts | 272° |
| 2026-04-27 06:51 | 59.91327 | 150.71500 | 582 ft | 14 kts | 272° |
| 2026-04-27 06:51 | 59.91274 | 150.71364 | 582 ft | 14 kts | 185° |
| 2026-04-27 06:51 | 59.91180 | 150.71346 | 584 ft | 12 kts | 185° |
| 2026-04-27 06:52 | 59.91125 | 150.71238 | 585 ft | 15 kts | 265° |
| 2026-04-27 06:52 | 59.91127 | 150.70994 | 584 ft | 21 kts | 272° |
| 2026-04-27 06:52 | 59.91135 | 150.70664 | 582 ft | 27 kts | 272° |
| 2026-04-27 06:52 | 59.91144 | 150.70253 | 580 ft | 32 kts | 272° |
| 2026-04-27 06:53 | 59.91158 | 150.69784 | 583 ft | 35 kts | 273° |
| 2026-04-27 06:53 | 59.91171 | 150.69356 | 585 ft | 22 kts | 274° |
| 2026-04-27 06:53 | 59.91216 | 150.69110 | 583 ft | 15 kts | 325° |
| 2026-04-27 06:53 | 59.91228 | 150.68977 | 583 ft | 9 kts | 225° |
| 2026-04-27 06:54 | 59.91178 | 150.68985 | 583 ft | 7 kts | 115° |
| 2026-04-27 06:54 | 59.91177 | 150.69032 | 583 ft | 0 kts | 91° |
| 2026-04-27 06:54 | 59.91177 | 150.69034 | 583 ft | 2 kts | 91° |
| 2026-04-27 06:55 | 59.91167 | 150.69474 | 585 ft | 63 kts | 93° |
| 2026-04-27 06:55 | 59.91134 | 150.70735 | 583 ft | 116 kts | 92° |
| 2026-04-27 06:55 | 59.91087 | 150.72570 | 677 ft | 136 kts | 91° |
| 2026-04-27 06:55 | 59.91051 | 150.74435 | 912 ft | 135 kts | 91° |
| 2026-04-27 06:56 | 59.91020 | 150.76349 | 1229 ft | 145 kts | 89° |
| 2026-04-27 06:56 | 59.90992 | 150.78382 | 1726 ft | 148 kts | 89° |
| 2026-04-27 06:56 | 59.90967 | 150.80557 | 1943 ft | 169 kts | 88° |
| 2026-04-27 06:56 | 59.90941 | 150.82987 | 2308 ft | 182 kts | 89° |
| 2026-04-27 06:57 | 59.90909 | 150.85587 | 2711 ft | 193 kts | 89° |
| 2026-04-27 06:57 | 59.90858 | 150.88282 | 3212 ft | 197 kts | 90° |
| 2026-04-27 06:57 | 59.90788 | 150.91104 | 3513 ft | 211 kts | 90° |
| 2026-04-27 06:57 | 59.90713 | 150.94104 | 3815 ft | 224 kts | 92° |
| 2026-04-27 06:58 | 59.90621 | 150.97215 | 4459 ft | 228 kts | 90° |
| 2026-04-27 06:58 | 59.90411 | 151.03923 | 5278 ft | 255 kts | 93° |
| 2026-04-27 06:58 | 59.90278 | 151.07525 | 5537 ft | 263 kts | 92° |
| 2026-04-27 06:59 | 59.90156 | 151.11175 | 5957 ft | 265 kts | 92° |
| 2026-04-27 06:59 | 59.90037 | 151.14852 | 6398 ft | 266 kts | 93° |
| 2026-04-27 06:59 | 59.89906 | 151.18536 | 6792 ft | 267 kts | 93° |
| 2026-04-27 06:59 | 59.89771 | 151.22233 | 7218 ft | 268 kts | 93° |
| 2026-04-27 07:00 | 59.89633 | 151.25954 | 7677 ft | 270 kts | 93° |
| 2026-04-27 07:00 | 59.89494 | 151.29691 | 8322 ft | 271 kts | 92° |
| 2026-04-27 07:00 | 59.89367 | 151.33449 | 9159 ft | 274 kts | 92° |
| 2026-04-27 07:00 | 59.89319 | 151.37246 | 9946 ft | 275 kts | 80° |
| 2026-04-27 07:01 | 59.90093 | 151.40669 | 10644 ft | 274 kts | 46° |
| 2026-04-27 07:01 | 59.91686 | 151.42683 | 11356 ft | 275 kts | 15° |
| 2026-04-27 07:01 | 59.93576 | 151.43083 | 11983 ft | 280 kts | 2° |
| 2026-04-27 07:01 | 59.95565 | 151.43205 | 12644 ft | 283 kts | 2° |
| 2026-04-27 07:02 | 59.97522 | 151.43259 | 13238 ft | 287 kts | 0° |
| 2026-04-27 07:02 | 59.99530 | 151.43184 | 13858 ft | 289 kts | 358° |
| 2026-04-27 07:02 | 60.01547 | 151.43044 | 14391 ft | 291 kts | 0° |
| 2026-04-27 07:02 | 60.03616 | 151.43162 | 14592 ft | 304 kts | 5° |
| 2026-04-27 07:03 | 60.05711 | 151.43604 | 15154 ft | 301 kts | 9° |
| 2026-04-27 07:03 | 60.07773 | 151.44252 | 15747 ft | 299 kts | 11° |
| 2026-04-27 07:03 | 60.09818 | 151.45040 | 16253 ft | 299 kts | 12° |
| 2026-04-27 07:03 | 60.11850 | 151.45887 | 16828 ft | 297 kts | 13° |
| 2026-04-27 07:04 | 60.13868 | 151.46779 | 17383 ft | 297 kts | 14° |
| 2026-04-27 07:04 | 60.15878 | 151.47692 | 17935 ft | 296 kts | 13° |
| 2026-04-27 07:04 | 60.17886 | 151.48581 | 18453 ft | 295 kts | 13° |
| 2026-04-27 07:04 | 60.19889 | 151.49463 | 18876 ft | 295 kts | 13° |
| 2026-04-27 07:05 | 60.21897 | 151.50345 | 19300 ft | 295 kts | 13° |
| 2026-04-27 07:05 | 60.23903 | 151.51238 | 19734 ft | 295 kts | 14° |
| 2026-04-27 07:05 | 60.25905 | 151.52155 | 20154 ft | 295 kts | 14° |
| 2026-04-27 07:05 | 60.27903 | 151.53044 | 20598 ft | 294 kts | 13° |
| 2026-04-27 07:06 | 60.29901 | 151.53921 | 21043 ft | 293 kts | 14° |
| 2026-04-27 07:06 | 60.31894 | 151.54824 | 21482 ft | 293 kts | 14° |
| 2026-04-27 07:06 | 60.33879 | 151.55725 | 21901 ft | 292 kts | 14° |
| 2026-04-27 07:06 | 60.35863 | 151.56604 | 22316 ft | 292 kts | 14° |
| 2026-04-27 07:07 | 60.37843 | 151.57512 | 22714 ft | 291 kts | 17° |
| 2026-04-27 07:07 | 60.39606 | 151.59356 | 23098 ft | 285 kts | 40° |
| 2026-04-27 07:07 | 60.41083 | 151.62018 | 23490 ft | 284 kts | 44° |
| 2026-04-27 07:07 | 60.42509 | 151.64787 | 23829 ft | 284 kts | 45° |
| 2026-04-27 07:08 | 60.43919 | 151.67583 | 24123 ft | 284 kts | 45° |
| 2026-04-27 07:08 | 60.45329 | 151.70376 | 24417 ft | 283 kts | 45° |
| 2026-04-27 07:08 | 60.46744 | 151.73152 | 24683 ft | 283 kts | 44° |
| 2026-04-27 07:08 | 60.48176 | 151.75904 | 24963 ft | 283 kts | 44° |
| 2026-04-27 07:09 | 60.49594 | 151.78604 | 25249 ft | 283 kts | 44° |
| 2026-04-27 07:09 | 60.51035 | 151.81333 | 25518 ft | 283 kts | 43° |
| 2026-04-27 07:09 | 60.52504 | 151.84083 | 25768 ft | 284 kts | 43° |
| 2026-04-27 07:09 | 60.53943 | 151.86741 | 26018 ft | 284 kts | 43° |
| 2026-04-27 07:10 | 60.55400 | 151.89456 | 26254 ft | 284 kts | 43° |
| 2026-04-27 07:10 | 60.56852 | 151.92191 | 26496 ft | 284 kts | 43° |
| 2026-04-27 07:10 | 60.58306 | 151.94916 | 26740 ft | 284 kts | 43° |
| 2026-04-27 07:10 | 60.59758 | 151.97649 | 26966 ft | 284 kts | 43° |
| 2026-04-27 07:11 | 60.61214 | 152.00364 | 27194 ft | 284 kts | 43° |
| 2026-04-27 07:11 | 60.62663 | 152.03104 | 27408 ft | 284 kts | 43° |
| 2026-04-27 07:11 | 60.64114 | 152.05846 | 27635 ft | 284 kts | 43° |
| 2026-04-27 07:11 | 60.65567 | 152.08583 | 27850 ft | 284 kts | 43° |
| 2026-04-27 07:12 | 60.66545 | 152.10441 | 27990 ft | 285 kts | 43° |
| 2026-04-27 07:12 | 60.67982 | 152.13137 | 28191 ft | 285 kts | 43° |
| 2026-04-27 07:12 | 60.69429 | 152.15888 | 28385 ft | 284 kts | 43° |
| 2026-04-27 07:12 | 60.70880 | 152.18644 | 28571 ft | 285 kts | 43° |
| 2026-04-27 07:13 | 60.72331 | 152.21391 | 28779 ft | 284 kts | 43° |
| 2026-04-27 07:13 | 60.73778 | 152.24157 | 28983 ft | 284 kts | 43° |
| 2026-04-27 07:13 | 60.75228 | 152.26903 | 29070 ft | 286 kts | 43° |
| 2026-04-27 07:13 | 60.76695 | 152.29717 | 29093 ft | 291 kts | 43° |
| 2026-04-27 07:14 | 60.78186 | 152.32572 | 29098 ft | 296 kts | 43° |
| 2026-04-27 07:14 | 60.81244 | 152.38433 | 29118 ft | 306 kts | 43° |
| 2026-04-27 07:15 | 60.84411 | 152.44445 | 29117 ft | 315 kts | 43° |
| 2026-04-27 07:15 | 60.87680 | 152.50621 | 29126 ft | 324 kts | 43° |
| 2026-04-27 07:16 | 60.91047 | 152.56990 | 29124 ft | 334 kts | 43° |
| 2026-04-27 07:16 | 60.94498 | 152.63540 | 29117 ft | 341 kts | 43° |
| 2026-04-27 07:17 | 60.97969 | 152.70221 | 29105 ft | 341 kts | 43° |
| 2026-04-27 07:17 | 61.01445 | 152.76860 | 29104 ft | 341 kts | 43° |
| 2026-04-27 07:18 | 61.04923 | 152.83549 | 29105 ft | 343 kts | 43° |
| 2026-04-27 07:18 | 61.08410 | 152.90291 | 29100 ft | 344 kts | 43° |
| 2026-04-27 07:19 | 61.11903 | 152.97079 | 29105 ft | 345 kts | 43° |
| 2026-04-27 07:19 | 61.15400 | 153.03864 | 29102 ft | 345 kts | 43° |
| 2026-04-27 07:20 | 61.18889 | 153.10677 | 29099 ft | 345 kts | 43° |
| 2026-04-27 07:20 | 61.22374 | 153.17516 | 29098 ft | 345 kts | 43° |
| 2026-04-27 07:21 | 61.25864 | 153.24362 | 29099 ft | 345 kts | 44° |
| 2026-04-27 07:21 | 61.29348 | 153.31247 | 29105 ft | 346 kts | 44° |
| 2026-04-27 07:22 | 61.32833 | 153.38167 | 29105 ft | 346 kts | 44° |
| 2026-04-27 07:22 | 61.36323 | 153.45081 | 29103 ft | 346 kts | 44° |
| 2026-04-27 07:23 | 61.39798 | 153.52013 | 29104 ft | 346 kts | 44° |
| 2026-04-27 07:23 | 61.43280 | 153.58972 | 29107 ft | 346 kts | 44° |
| 2026-04-27 07:24 | 61.46763 | 153.65933 | 29106 ft | 347 kts | 44° |
| 2026-04-27 07:24 | 61.50265 | 153.72956 | 29109 ft | 349 kts | 44° |
| 2026-04-27 07:25 | 61.53763 | 153.79972 | 29107 ft | 347 kts | 44° |
| 2026-04-27 07:25 | 61.57247 | 153.86928 | 29103 ft | 345 kts | 44° |
| 2026-04-27 07:26 | 61.60679 | 153.93890 | 29108 ft | 346 kts | 45° |
| 2026-04-27 07:26 | 61.64141 | 154.00920 | 29104 ft | 346 kts | 44° |
| 2026-04-27 07:27 | 61.67595 | 154.07999 | 29105 ft | 346 kts | 44° |
| 2026-04-27 07:27 | 61.71067 | 154.15120 | 29098 ft | 346 kts | 44° |
| 2026-04-27 07:28 | 61.74519 | 154.22192 | 29094 ft | 346 kts | 45° |
| 2026-04-27 07:28 | 61.77955 | 154.29304 | 29102 ft | 346 kts | 45° |
| 2026-04-27 07:29 | 61.81397 | 154.36436 | 29098 ft | 347 kts | 45° |
| 2026-04-27 07:29 | 61.84818 | 154.43532 | 29092 ft | 346 kts | 45° |
| 2026-04-27 07:30 | 61.88254 | 154.50668 | 29100 ft | 346 kts | 45° |
| 2026-04-27 07:30 | 61.91708 | 154.57858 | 29098 ft | 346 kts | 45° |
| 2026-04-27 07:31 | 61.95121 | 154.64977 | 29095 ft | 346 kts | 45° |
| 2026-04-27 07:31 | 61.98583 | 154.72224 | 29096 ft | 348 kts | 45° |
| 2026-04-27 07:32 | 62.02029 | 154.79463 | 29095 ft | 348 kts | 46° |
| 2026-04-27 07:32 | 62.05460 | 154.86781 | 29099 ft | 350 kts | 46° |
| 2026-04-27 07:33 | 62.08870 | 154.94094 | 29088 ft | 349 kts | 45° |
| 2026-04-27 07:33 | 62.12316 | 155.01365 | 29093 ft | 347 kts | 45° |
| 2026-04-27 07:34 | 62.15727 | 155.08692 | 29094 ft | 348 kts | 46° |
| 2026-04-27 07:34 | 62.19149 | 155.16014 | 29095 ft | 348 kts | 46° |
| 2026-04-27 07:35 | 62.22560 | 155.23392 | 29102 ft | 349 kts | 46° |
| 2026-04-27 07:35 | 62.25978 | 155.30756 | 29094 ft | 348 kts | 46° |
| 2026-04-27 07:36 | 62.29407 | 155.38136 | 29099 ft | 350 kts | 47° |
| 2026-04-27 07:36 | 62.32840 | 155.45607 | 29104 ft | 352 kts | 46° |
| 2026-04-27 07:37 | 62.36262 | 155.53114 | 29093 ft | 351 kts | 47° |
| 2026-04-27 07:37 | 62.39688 | 155.60592 | 29088 ft | 351 kts | 47° |
| 2026-04-27 07:38 | 62.43103 | 155.68109 | 29094 ft | 351 kts | 47° |
| 2026-04-27 07:38 | 62.46569 | 155.75556 | 29093 ft | 352 kts | 41° |
| 2026-04-27 07:39 | 62.50517 | 155.81820 | 29082 ft | 353 kts | 37° |
| 2026-04-27 07:39 | 62.54616 | 155.87821 | 29090 ft | 357 kts | 37° |
| 2026-04-27 07:40 | 62.58712 | 155.93943 | 29094 ft | 357 kts | 37° |
| 2026-04-27 07:40 | 62.62760 | 156.00200 | 29085 ft | 355 kts | 38° |
| 2026-04-27 07:41 | 62.66767 | 156.06425 | 29089 ft | 353 kts | 38° |
| 2026-04-27 07:41 | 62.70782 | 156.12630 | 29090 ft | 354 kts | 38° |
| 2026-04-27 07:42 | 62.74795 | 156.18885 | 29083 ft | 355 kts | 38° |
| 2026-04-27 07:42 | 62.78800 | 156.25180 | 29088 ft | 355 kts | 38° |
| 2026-04-27 07:43 | 62.82826 | 156.31446 | 29083 ft | 357 kts | 38° |
| 2026-04-27 07:43 | 62.86896 | 156.37808 | 29097 ft | 361 kts | 39° |
| 2026-04-27 07:44 | 62.90970 | 156.44275 | 29104 ft | 362 kts | 39° |
| 2026-04-27 07:44 | 62.95047 | 156.50745 | 29102 ft | 361 kts | 39° |
| 2026-04-27 07:45 | 62.99117 | 156.57220 | 29090 ft | 361 kts | 39° |
| 2026-04-27 07:45 | 63.03179 | 156.63734 | 29098 ft | 361 kts | 39° |
| 2026-04-27 07:46 | 63.07255 | 156.70230 | 29096 ft | 362 kts | 39° |
| 2026-04-27 07:46 | 63.11300 | 156.76736 | 29099 ft | 358 kts | 39° |
| 2026-04-27 07:47 | 63.15345 | 156.83236 | 29102 ft | 362 kts | 39° |
| 2026-04-27 07:47 | 63.19435 | 156.89849 | 29107 ft | 365 kts | 39° |
| 2026-04-27 07:48 | 63.23537 | 156.96509 | 29111 ft | 366 kts | 39° |
| 2026-04-27 07:48 | 63.27640 | 157.03175 | 29112 ft | 365 kts | 40° |
| 2026-04-27 07:49 | 63.31730 | 157.09851 | 29109 ft | 364 kts | 40° |
| 2026-04-27 07:49 | 63.35799 | 157.16571 | 29103 ft | 365 kts | 40° |
| 2026-04-27 07:50 | 63.39886 | 157.23282 | 29107 ft | 365 kts | 40° |
| 2026-04-27 07:50 | 63.43960 | 157.30050 | 29123 ft | 365 kts | 40° |
| 2026-04-27 07:51 | 63.48039 | 157.36800 | 29117 ft | 365 kts | 40° |
| 2026-04-27 07:51 | 63.52105 | 157.43618 | 29120 ft | 365 kts | 40° |
| 2026-04-27 07:52 | 63.55490 | 157.49240 | 29122 ft | 364 kts | 40° |
| 2026-04-27 07:52 | 63.59542 | 157.56074 | 29122 ft | 364 kts | 40° |
| 2026-04-27 07:53 | 63.63604 | 157.62911 | 29126 ft | 365 kts | 40° |
| 2026-04-27 07:53 | 63.67671 | 157.69758 | 29126 ft | 365 kts | 40° |
| 2026-04-27 07:54 | 63.71722 | 157.76667 | 29129 ft | 365 kts | 41° |
| 2026-04-27 07:54 | 63.75800 | 157.83584 | 29112 ft | 370 kts | 41° |
| 2026-04-27 07:55 | 63.79956 | 157.90602 | 29129 ft | 375 kts | 41° |
| 2026-04-27 07:55 | 63.84119 | 157.97744 | 29132 ft | 375 kts | 41° |
| 2026-04-27 07:56 | 63.88273 | 158.04905 | 29126 ft | 375 kts | 41° |
| 2026-04-27 07:56 | 63.92419 | 158.12069 | 29118 ft | 374 kts | 42° |
| 2026-04-27 07:57 | 63.96549 | 158.19248 | 29123 ft | 374 kts | 41° |
| 2026-04-27 07:57 | 64.00682 | 158.26417 | 29117 ft | 371 kts | 41° |
| 2026-04-27 07:58 | 64.04787 | 158.33556 | 29101 ft | 372 kts | 41° |
| 2026-04-27 07:58 | 64.08918 | 158.40852 | 29117 ft | 378 kts | 42° |
| 2026-04-27 07:59 | 64.13105 | 158.48191 | 29106 ft | 380 kts | 41° |
| 2026-04-27 07:59 | 64.19365 | 158.59312 | 29106 ft | 378 kts | 42° |
| 2026-04-27 08:00 | 64.23530 | 158.66701 | 29098 ft | 378 kts | 42° |
| 2026-04-27 08:00 | 64.27679 | 158.74135 | 29102 ft | 379 kts | 42° |
| 2026-04-27 08:01 | 64.31840 | 158.81588 | 29101 ft | 379 kts | 41° |
| 2026-04-27 08:01 | 64.36008 | 158.89058 | 29084 ft | 381 kts | 42° |
| 2026-04-27 08:02 | 64.40201 | 158.96652 | 29096 ft | 385 kts | 42° |
| 2026-04-27 08:02 | 64.44410 | 159.04304 | 29081 ft | 384 kts | 42° |
| 2026-04-27 08:03 | 64.48618 | 159.11887 | 29089 ft | 382 kts | 41° |
| 2026-04-27 08:03 | 64.52793 | 159.19499 | 29102 ft | 382 kts | 42° |
| 2026-04-27 08:04 | 64.56953 | 159.27193 | 29091 ft | 382 kts | 42° |
| 2026-04-27 08:04 | 64.61133 | 159.34844 | 29086 ft | 382 kts | 42° |
| 2026-04-27 08:05 | 64.65284 | 159.42579 | 29076 ft | 382 kts | 42° |
| 2026-04-27 08:05 | 64.69486 | 159.50308 | 29102 ft | 386 kts | 41° |
| 2026-04-27 08:06 | 64.73691 | 159.58158 | 29102 ft | 386 kts | 42° |
| 2026-04-27 08:06 | 64.77869 | 159.66039 | 29095 ft | 385 kts | 42° |
| 2026-04-27 08:07 | 64.82066 | 159.73876 | 29082 ft | 385 kts | 42° |
| 2026-04-27 08:07 | 64.86238 | 159.81783 | 29075 ft | 385 kts | 43° |
| 2026-04-27 08:08 | 64.90406 | 159.89746 | 29088 ft | 383 kts | 41° |
| 2026-04-27 08:08 | 64.94579 | 159.97556 | 29078 ft | 381 kts | 41° |
| 2026-04-27 08:09 | 64.98719 | 160.05481 | 29074 ft | 386 kts | 42° |
| 2026-04-27 08:09 | 65.02898 | 160.13500 | 29079 ft | 387 kts | 41° |
| 2026-04-27 08:10 | 65.07080 | 160.21524 | 29066 ft | 387 kts | 42° |
| 2026-04-27 08:10 | 65.11250 | 160.29642 | 29067 ft | 388 kts | 41° |
| 2026-04-27 08:11 | 65.15421 | 160.37689 | 29072 ft | 385 kts | 42° |
| 2026-04-27 08:11 | 65.19551 | 160.45840 | 29061 ft | 386 kts | 42° |
| 2026-04-27 08:12 | 65.23721 | 160.53946 | 29064 ft | 387 kts | 41° |
| 2026-04-27 08:12 | 65.27939 | 160.61931 | 29059 ft | 387 kts | 40° |
| 2026-04-27 08:13 | 65.32158 | 160.69767 | 29063 ft | 386 kts | 40° |
| 2026-04-27 08:13 | 65.36387 | 160.77712 | 29072 ft | 387 kts | 40° |
| 2026-04-27 08:14 | 65.40626 | 160.85679 | 29068 ft | 387 kts | 40° |
| 2026-04-27 08:14 | 65.44864 | 160.93784 | 29089 ft | 387 kts | 40° |
| 2026-04-27 08:15 | 65.49089 | 161.01784 | 29083 ft | 386 kts | 40° |
| 2026-04-27 08:15 | 65.53284 | 161.09871 | 29087 ft | 386 kts | 40° |
| 2026-04-27 08:16 | 65.57499 | 161.17939 | 29071 ft | 386 kts | 40° |
| 2026-04-27 08:16 | 65.61691 | 161.26041 | 29098 ft | 386 kts | 40° |
| 2026-04-27 08:17 | 65.65896 | 161.34177 | 29091 ft | 387 kts | 40° |
| 2026-04-27 08:17 | 65.70071 | 161.42265 | 29090 ft | 386 kts | 40° |
| 2026-04-27 08:18 | 65.74292 | 161.50468 | 29096 ft | 386 kts | 40° |
| 2026-04-27 08:18 | 65.78459 | 161.58730 | 29094 ft | 386 kts | 40° |
| 2026-04-27 08:19 | 65.82637 | 161.66941 | 29104 ft | 386 kts | 40° |
| 2026-04-27 08:19 | 65.86811 | 161.75177 | 29099 ft | 385 kts | 40° |
| 2026-04-27 08:20 | 65.90967 | 161.83425 | 29091 ft | 385 kts | 40° |
| 2026-04-27 08:20 | 65.95079 | 161.91717 | 29103 ft | 385 kts | 40° |
| 2026-04-27 08:21 | 65.99216 | 162.00090 | 29100 ft | 386 kts | 40° |
| 2026-04-27 08:21 | 66.03373 | 162.08428 | 29101 ft | 385 kts | 40° |
| 2026-04-27 08:22 | 66.07539 | 162.16871 | 29100 ft | 385 kts | 40° |
| 2026-04-27 08:22 | 66.11641 | 162.25233 | 29103 ft | 385 kts | 40° |
| 2026-04-27 08:23 | 66.15769 | 162.33678 | 29104 ft | 385 kts | 40° |
| 2026-04-27 08:23 | 66.19926 | 162.42208 | 29092 ft | 386 kts | 40° |
| 2026-04-27 08:24 | 66.24052 | 162.50645 | 29110 ft | 384 kts | 39° |
| 2026-04-27 08:24 | 66.28141 | 162.59022 | 29101 ft | 380 kts | 40° |
| 2026-04-27 08:25 | 66.32157 | 162.67439 | 29102 ft | 380 kts | 40° |
| 2026-04-27 08:25 | 66.36249 | 162.75936 | 29105 ft | 381 kts | 40° |
| 2026-04-27 08:26 | 66.40279 | 162.84401 | 29104 ft | 381 kts | 40° |
| 2026-04-27 08:26 | 66.44319 | 162.92952 | 29093 ft | 380 kts | 40° |
| 2026-04-27 08:27 | 66.48368 | 163.01468 | 29098 ft | 380 kts | 40° |
| 2026-04-27 08:27 | 66.52410 | 163.10030 | 29093 ft | 381 kts | 40° |
| 2026-04-27 08:28 | 66.56153 | 163.18024 | 29096 ft | 381 kts | 40° |
| 2026-04-27 08:28 | 66.60185 | 163.26665 | 29088 ft | 381 kts | 40° |
| 2026-04-27 08:29 | 66.64212 | 163.35313 | 29088 ft | 380 kts | 40° |
| 2026-04-27 08:29 | 66.68238 | 163.43978 | 29094 ft | 378 kts | 41° |
| 2026-04-27 08:30 | 66.72191 | 163.52519 | 29083 ft | 373 kts | 41° |
| 2026-04-27 08:30 | 66.76107 | 163.61121 | 29083 ft | 373 kts | 41° |
| 2026-04-27 08:31 | 66.80053 | 163.69696 | 29083 ft | 374 kts | 41° |
| 2026-04-27 08:31 | 66.83978 | 163.78362 | 29074 ft | 374 kts | 41° |
| 2026-04-27 08:32 | 66.87927 | 163.87023 | 29079 ft | 375 kts | 41° |
| 2026-04-27 08:32 | 66.91234 | 163.94308 | 29079 ft | 375 kts | 41° |
| 2026-04-27 08:33 | 66.95144 | 164.03086 | 29077 ft | 375 kts | 41° |
| 2026-04-27 08:33 | 66.99076 | 164.11842 | 29076 ft | 375 kts | 41° |
| 2026-04-27 08:34 | 67.02989 | 164.20678 | 29075 ft | 375 kts | 41° |
| 2026-04-27 08:34 | 67.06915 | 164.29500 | 29074 ft | 375 kts | 42° |
| 2026-04-27 08:35 | 67.10811 | 164.38394 | 29077 ft | 375 kts | 41° |
| 2026-04-27 08:35 | 67.14664 | 164.47073 | 29069 ft | 367 kts | 42° |
| 2026-04-27 08:36 | 67.18477 | 164.55775 | 29073 ft | 366 kts | 42° |
| 2026-04-27 08:36 | 67.22274 | 164.64505 | 29075 ft | 366 kts | 43° |
| 2026-04-27 08:37 | 67.26070 | 164.73336 | 29078 ft | 368 kts | 43° |
| 2026-04-27 08:37 | 67.29879 | 164.82133 | 29078 ft | 367 kts | 43° |
| 2026-04-27 08:38 | 67.33692 | 164.90959 | 29083 ft | 368 kts | 43° |
| 2026-04-27 08:38 | 67.37491 | 164.99879 | 29091 ft | 368 kts | 43° |
| 2026-04-27 08:39 | 67.41271 | 165.08809 | 29089 ft | 366 kts | 43° |
| 2026-04-27 08:39 | 67.45057 | 165.17731 | 29090 ft | 367 kts | 43° |
| 2026-04-27 08:40 | 67.48833 | 165.26645 | 29095 ft | 366 kts | 43° |
| 2026-04-27 08:40 | 67.52588 | 165.35620 | 29092 ft | 365 kts | 43° |
| 2026-04-27 08:41 | 67.56339 | 165.44553 | 29101 ft | 361 kts | 44° |
| 2026-04-27 08:41 | 67.59995 | 165.53314 | 29101 ft | 355 kts | 44° |
| 2026-04-27 08:42 | 67.63625 | 165.62112 | 29101 ft | 356 kts | 44° |
| 2026-04-27 08:42 | 67.67261 | 165.70962 | 29105 ft | 356 kts | 44° |
| 2026-04-27 08:43 | 67.70909 | 165.79783 | 29106 ft | 356 kts | 44° |
| 2026-04-27 08:43 | 67.74539 | 165.88655 | 29103 ft | 356 kts | 45° |
| 2026-04-27 08:44 | 67.78170 | 165.97498 | 29100 ft | 355 kts | 45° |
| 2026-04-27 08:44 | 67.81795 | 166.06407 | 29105 ft | 356 kts | 45° |
| 2026-04-27 08:45 | 67.85414 | 166.15341 | 29105 ft | 355 kts | 43° |
| 2026-04-27 08:45 | 67.89320 | 166.23420 | 29113 ft | 357 kts | 38° |
| 2026-04-27 08:46 | 67.93315 | 166.31246 | 29125 ft | 356 kts | 39° |
| 2026-04-27 08:46 | 67.97268 | 166.39186 | 29123 ft | 356 kts | 39° |
| 2026-04-27 08:47 | 68.01201 | 166.47244 | 29122 ft | 356 kts | 39° |
| 2026-04-27 08:47 | 68.05128 | 166.55358 | 29132 ft | 357 kts | 39° |
| 2026-04-27 08:48 | 68.09057 | 166.63464 | 29149 ft | 355 kts | 40° |
| 2026-04-27 08:48 | 68.12953 | 166.71568 | 29149 ft | 354 kts | 40° |
| 2026-04-27 08:49 | 68.16840 | 166.79688 | 29159 ft | 354 kts | 40° |
| 2026-04-27 08:49 | 68.20733 | 166.87837 | 29153 ft | 355 kts | 40° |
| 2026-04-27 08:50 | 68.24622 | 166.96012 | 29189 ft | 355 kts | 40° |
| 2026-04-27 08:50 | 68.28514 | 167.04206 | 29194 ft | 355 kts | 40° |
| 2026-04-27 08:51 | 68.32403 | 167.12426 | 29189 ft | 355 kts | 40° |
| 2026-04-27 08:51 | 68.36270 | 167.20713 | 29193 ft | 354 kts | 40° |
| 2026-04-27 08:52 | 68.40124 | 167.28948 | 29207 ft | 350 kts | 41° |
| 2026-04-27 08:52 | 68.43927 | 167.37174 | 29196 ft | 349 kts | 42° |
| 2026-04-27 08:53 | 68.47719 | 167.45438 | 29199 ft | 349 kts | 41° |
| 2026-04-27 08:53 | 68.51521 | 167.53683 | 29213 ft | 350 kts | 42° |
| 2026-04-27 08:54 | 68.55329 | 167.61988 | 29217 ft | 350 kts | 41° |
| 2026-04-27 08:54 | 68.59120 | 167.70335 | 29216 ft | 349 kts | 41° |
| 2026-04-27 08:55 | 68.62908 | 167.78641 | 29220 ft | 349 kts | 42° |
| 2026-04-27 08:55 | 68.66682 | 167.87049 | 29216 ft | 349 kts | 42° |
| 2026-04-27 08:56 | 68.70467 | 167.95418 | 29218 ft | 349 kts | 42° |
| 2026-04-27 08:56 | 68.74231 | 168.03850 | 29231 ft | 349 kts | 42° |
| 2026-04-27 08:57 | 68.79872 | 168.16471 | 28849 ft | 344 kts | 42° |
| 2026-04-27 08:57 | 68.81732 | 168.20597 | 28343 ft | 342 kts | 43° |
| 2026-04-27 08:58 | 68.83566 | 168.24740 | 27844 ft | 339 kts | 43° |
| 2026-04-27 08:58 | 68.85379 | 168.28885 | 27362 ft | 337 kts | 43° |
| 2026-04-27 08:58 | 68.87189 | 168.32974 | 26884 ft | 335 kts | 43° |
| 2026-04-27 08:58 | 68.88984 | 168.37058 | 26414 ft | 333 kts | 43° |
| 2026-04-27 08:59 | 68.90772 | 168.41119 | 25957 ft | 331 kts | 43° |
| 2026-04-27 08:59 | 68.92538 | 168.45183 | 25487 ft | 329 kts | 43° |
| 2026-04-27 08:59 | 68.94287 | 168.49161 | 25043 ft | 315 kts | 43° |
| 2026-04-27 08:59 | 68.95958 | 168.52988 | 24587 ft | 310 kts | 43° |
| 2026-04-27 09:00 | 68.97614 | 168.56835 | 24141 ft | 311 kts | 43° |
| 2026-04-27 09:00 | 68.99275 | 168.60693 | 23689 ft | 311 kts | 43° |
| 2026-04-27 09:00 | 69.00945 | 168.64517 | 23175 ft | 311 kts | 43° |
| 2026-04-27 09:00 | 69.02614 | 168.68337 | 22681 ft | 310 kts | 43° |
| 2026-04-27 09:01 | 69.04284 | 168.72170 | 22183 ft | 310 kts | 42° |
| 2026-04-27 09:01 | 69.05946 | 168.76008 | 21697 ft | 310 kts | 43° |
| 2026-04-27 09:01 | 69.07604 | 168.79862 | 21223 ft | 310 kts | 43° |
| 2026-04-27 09:01 | 69.09256 | 168.83725 | 20757 ft | 309 kts | 42° |
| 2026-04-27 09:02 | 69.10902 | 168.87608 | 20297 ft | 309 kts | 42° |
| 2026-04-27 09:02 | 69.12545 | 168.91490 | 19844 ft | 309 kts | 42° |
| 2026-04-27 09:02 | 69.14193 | 168.95358 | 19401 ft | 309 kts | 42° |
| 2026-04-27 09:02 | 69.15839 | 168.99223 | 18959 ft | 308 kts | 41° |
| 2026-04-27 09:03 | 69.17479 | 169.03084 | 18514 ft | 307 kts | 42° |
| 2026-04-27 09:03 | 69.19115 | 169.06954 | 17999 ft | 307 kts | 41° |
| 2026-04-27 09:03 | 69.20646 | 169.11088 | 17496 ft | 304 kts | 51° |
| 2026-04-27 09:03 | 69.21916 | 169.15833 | 17009 ft | 303 kts | 56° |
| 2026-04-27 09:04 | 69.23106 | 169.20720 | 16527 ft | 302 kts | 57° |
| 2026-04-27 09:04 | 69.24234 | 169.25612 | 16059 ft | 301 kts | 58° |
| 2026-04-27 09:04 | 69.25363 | 169.30576 | 15592 ft | 300 kts | 58° |
| 2026-04-27 09:04 | 69.26490 | 169.35519 | 15119 ft | 300 kts | 58° |
| 2026-04-27 09:05 | 69.27613 | 169.40469 | 14676 ft | 299 kts | 58° |
| 2026-04-27 09:05 | 69.28729 | 169.45404 | 14225 ft | 298 kts | 58° |
| 2026-04-27 09:05 | 69.29858 | 169.50314 | 13750 ft | 298 kts | 57° |
| 2026-04-27 09:05 | 69.30994 | 169.55200 | 13250 ft | 296 kts | 57° |
| 2026-04-27 09:06 | 69.32123 | 169.60073 | 12754 ft | 296 kts | 57° |
| 2026-04-27 09:06 | 69.33234 | 169.64963 | 12261 ft | 295 kts | 58° |
| 2026-04-27 09:06 | 69.34337 | 169.69769 | 11782 ft | 282 kts | 57° |
| 2026-04-27 09:06 | 69.35367 | 169.74276 | 11296 ft | 269 kts | 58° |
| 2026-04-27 09:07 | 69.36383 | 169.78776 | 10825 ft | 273 kts | 57° |
| 2026-04-27 09:07 | 69.37420 | 169.83297 | 10366 ft | 275 kts | 57° |
| 2026-04-27 09:07 | 69.38460 | 169.87877 | 9886 ft | 277 kts | 58° |
| 2026-04-27 09:07 | 69.39495 | 169.92497 | 9393 ft | 277 kts | 58° |
| 2026-04-27 09:08 | 69.40530 | 169.97117 | 8897 ft | 277 kts | 58° |
| 2026-04-27 09:08 | 69.41560 | 170.01727 | 8417 ft | 276 kts | 58° |
| 2026-04-27 09:08 | 69.42592 | 170.06319 | 7941 ft | 275 kts | 57° |
| 2026-04-27 09:08 | 69.43611 | 170.10827 | 7480 ft | 275 kts | 58° |
| 2026-04-27 09:09 | 69.44629 | 170.15409 | 7011 ft | 273 kts | 58° |
| 2026-04-27 09:09 | 69.45648 | 170.19981 | 6552 ft | 272 kts | 58° |
| 2026-04-27 09:09 | 69.46669 | 170.24507 | 6056 ft | 271 kts | 58° |
| 2026-04-27 09:09 | 69.47682 | 170.29050 | 5568 ft | 271 kts | 58° |
| 2026-04-27 09:10 | 69.48694 | 170.33580 | 5082 ft | 271 kts | 58° |
| 2026-04-27 09:10 | 69.49691 | 170.37995 | 4596 ft | 253 kts | 58° |
| 2026-04-27 09:10 | 69.50595 | 170.42049 | 4227 ft | 236 kts | 59° |
| 2026-04-27 09:10 | 69.51460 | 170.45946 | 4058 ft | 229 kts | 59° |
| 2026-04-27 09:11 | 69.52295 | 170.49751 | 3906 ft | 223 kts | 59° |
| 2026-04-27 09:11 | 69.53169 | 170.53346 | 3756 ft | 219 kts | 54° |
| 2026-04-27 09:11 | 69.54105 | 170.56732 | 3635 ft | 214 kts | 53° |
| 2026-04-27 09:11 | 69.55028 | 170.59981 | 3601 ft | 206 kts | 52° |
| 2026-04-27 09:12 | 69.55919 | 170.63068 | 3587 ft | 198 kts | 53° |
| 2026-04-27 09:12 | 69.56797 | 170.66092 | 3584 ft | 197 kts | 53° |
| 2026-04-27 09:12 | 69.57663 | 170.69142 | 3596 ft | 198 kts | 53° |
| 2026-04-27 09:12 | 69.58739 | 170.71539 | 3593 ft | 203 kts | 18° |
| 2026-04-27 09:13 | 69.60160 | 170.71303 | 3590 ft | 213 kts | 348° |
| 2026-04-27 09:13 | 69.61631 | 170.70352 | 3246 ft | 219 kts | 354° |
| 2026-04-27 09:13 | 69.63150 | 170.69676 | 2925 ft | 223 kts | 353° |
| 2026-04-27 09:13 | 69.64667 | 170.68753 | 2627 ft | 217 kts | 348° |
| 2026-04-27 09:14 | 69.66085 | 170.67806 | 2309 ft | 203 kts | 350° |
| 2026-04-27 09:14 | 69.67415 | 170.66963 | 2069 ft | 190 kts | 349° |
| 2026-04-27 09:14 | 69.68675 | 170.66142 | 1843 ft | 181 kts | 349° |
| 2026-04-27 09:14 | 69.69852 | 170.65340 | 1569 ft | 166 kts | 348° |
| 2026-04-27 09:15 | 69.70577 | 170.64855 | 1416 ft | 157 kts | 349° |
| 2026-04-27 09:15 | 69.71592 | 170.64189 | 1180 ft | 143 kts | 349° |
| 2026-04-27 09:15 | 69.72515 | 170.63584 | 984 ft | 128 kts | 351° |
| 2026-04-27 09:15 | 69.73347 | 170.63041 | 809 ft | 119 kts | 350° |
| 2026-04-27 09:16 | 69.74137 | 170.62513 | 643 ft | 115 kts | 351° |
| 2026-04-27 09:16 | 69.74915 | 170.61998 | 490 ft | 115 kts | 349° |
| 2026-04-27 09:16 | 69.75705 | 170.61390 | 318 ft | 119 kts | 348° |
| 2026-04-27 09:16 | 69.76507 | 170.60857 | 190 ft | 118 kts | 349° |
| 2026-04-27 09:17 | 69.77309 | 170.60331 | 58 ft | 118 kts | 349° |
| 2026-04-27 09:17 | 69.78061 | 170.59807 | 29 ft | 102 kts | 355° |
| 2026-04-27 09:17 | 69.78669 | 170.59435 | 27 ft | 78 kts | 347° |
| 2026-04-27 09:17 | 69.79079 | 170.59148 | 26 ft | 31 kts | 346° |
| 2026-04-27 09:18 | 69.79124 | 170.59116 | 25 ft | 0 kts | 346° |